createdAt,value
2018-09-06T00:00:54.985Z,10.23
2018-09-06T00:05:57.362Z,10.60
2018-09-06T00:11:00.594Z,10.37
2018-09-06T00:16:03.626Z,11.50
2018-09-06T00:21:06.247Z,10.37
2018-09-06T00:26:09.572Z,10.80
2018-09-06T00:31:12.006Z,11.20
2018-09-06T00:36:15.778Z,10.10
2018-09-06T00:41:18.055Z,11.30
2018-09-06T00:46:20.241Z,11.57
2018-09-06T00:51:25.239Z,12.50
2018-09-06T00:56:28.568Z,11.70
2018-09-06T01:01:30.970Z,11.00
2018-09-06T01:06:35.405Z,11.77
2018-09-06T01:11:37.905Z,11.43
2018-09-06T01:16:40.073Z,11.50
2018-09-06T01:21:44.057Z,11.57
2018-09-06T01:26:46.661Z,11.70
2018-09-06T01:31:50.900Z,11.90
2018-09-06T01:36:56.820Z,11.50
2018-09-06T01:42:00.333Z,11.97
2018-09-06T01:47:02.644Z,11.40
2018-09-06T01:52:05.064Z,11.83
2018-09-06T01:57:09.290Z,11.43
2018-09-06T02:02:11.513Z,12.43
2018-09-06T02:07:13.689Z,12.40
2018-09-06T02:12:15.853Z,13.10
2018-09-06T02:17:18.229Z,12.37
2018-09-06T02:22:24.154Z,12.57
2018-09-06T02:27:26.981Z,13.27
2018-09-06T02:32:29.142Z,13.30
2018-09-06T02:37:32.521Z,13.10
2018-09-06T02:42:35.006Z,13.17
2018-09-06T02:47:41.780Z,13.40
2018-09-06T02:52:44.741Z,12.70
2018-09-06T02:57:47.181Z,12.67
2018-09-06T03:02:50.977Z,13.13
2018-09-06T03:07:54.293Z,13.40
2018-09-06T03:12:57.101Z,12.70
2018-09-06T03:17:59.478Z,15.27
2018-09-06T03:23:02.493Z,13.67
2018-09-06T03:28:07.378Z,13.53
2018-09-06T03:33:10.765Z,14.30
2018-09-06T03:38:14.081Z,14.00
2018-09-06T03:43:16.300Z,14.47
2018-09-06T03:48:18.466Z,14.07
2018-09-06T03:53:20.710Z,13.43
2018-09-06T03:58:22.905Z,15.30
2018-09-06T04:03:25.065Z,14.30
2018-09-06T04:08:27.270Z,14.47
2018-09-06T04:13:30.921Z,13.90
2018-09-06T04:18:33.083Z,14.40
2018-09-06T04:23:35.266Z,15.30
2018-09-06T04:28:40.004Z,15.27
2018-09-06T04:33:42.408Z,14.50
2018-09-06T04:38:44.586Z,16.00
2018-09-06T04:43:49.007Z,17.00
2018-09-06T04:48:53.154Z,15.17
2018-09-06T04:53:55.650Z,17.03
2018-09-06T04:58:58.437Z,16.07
2018-09-06T05:04:00.710Z,16.80
2018-09-06T05:09:05.253Z,16.20
2018-09-06T05:14:07.673Z,16.60
2018-09-06T05:19:10.078Z,15.73
2018-09-06T05:24:12.233Z,16.07
2018-09-06T05:29:14.381Z,15.90
2018-09-06T05:34:16.525Z,16.60
2018-09-06T05:39:19.750Z,16.27
2018-09-06T05:44:22.969Z,16.20
2018-09-06T05:49:25.154Z,16.70
2018-09-06T05:54:27.293Z,15.87
2018-09-06T05:59:29.465Z,14.03
2018-09-06T06:04:32.047Z,15.60
2018-09-06T06:09:37.128Z,15.13
2018-09-06T06:14:39.405Z,15.20
2018-09-06T06:19:41.557Z,15.10
2018-09-06T06:24:43.716Z,16.67
2018-09-06T06:29:45.878Z,15.67
2018-09-06T06:34:48.069Z,16.60
2018-09-06T06:39:51.272Z,15.23
2018-09-06T06:44:53.337Z,16.40
2018-09-06T06:49:55.489Z,15.43
2018-09-06T06:54:58.474Z,15.43
2018-09-06T07:00:03.202Z,15.40
2018-09-06T07:05:07.400Z,15.03
2018-09-06T07:10:11.800Z,15.70
2018-09-06T07:15:14.514Z,15.53
2018-09-06T07:20:17.134Z,15.53
2018-09-06T07:25:19.298Z,15.40
2018-09-06T07:30:21.452Z,14.93
2018-09-06T07:35:23.738Z,16.40
2018-09-06T07:40:26.124Z,15.40
2018-09-06T07:45:29.286Z,15.83
2018-09-06T07:50:31.446Z,15.47
2018-09-06T07:55:35.348Z,15.97
2018-09-06T08:00:40.366Z,15.40
2018-09-06T08:05:43.420Z,15.00
2018-09-06T08:10:46.029Z,15.17
2018-09-06T08:15:48.297Z,15.13
2018-09-06T08:20:50.493Z,15.17
2018-09-06T08:25:53.089Z,14.83
2018-09-06T08:30:55.807Z,15.07
2018-09-06T08:35:59.585Z,15.00
2018-09-06T08:41:01.841Z,14.30
2018-09-06T08:46:04.061Z,14.80
2018-09-06T08:51:06.564Z,15.00
2018-09-06T08:56:09.239Z,14.47
2018-09-06T09:01:17.436Z,15.77
2018-09-06T09:06:19.653Z,18.17
2018-09-06T09:11:22.241Z,17.53
2018-09-06T09:16:24.509Z,14.73
2018-09-06T09:21:26.687Z,8.53
2018-09-06T09:26:28.829Z,9.93
2018-09-06T09:31:31.738Z,10.67
2018-09-06T09:36:35.410Z,8.87
2018-09-06T09:41:37.578Z,9.77
2018-09-06T09:51:41.578Z,9.10
2018-09-06T09:56:43.746Z,10.60
2018-09-06T10:01:51.960Z,11.20
2018-09-06T10:07:00.450Z,11.50
2018-09-06T10:12:02.890Z,15.60
2018-09-06T10:17:05.129Z,18.97
2018-09-06T10:22:07.297Z,18.90
2018-09-06T10:27:09.493Z,19.10
2018-09-06T10:32:11.898Z,22.03
2018-09-06T10:37:15.531Z,21.60
2018-09-06T10:42:17.739Z,20.90
2018-09-06T10:47:19.931Z,19.87
2018-09-06T10:52:23.094Z,19.20
2018-09-06T10:57:28.739Z,17.60
2018-09-06T11:02:31.013Z,17.80
2018-09-06T11:07:34.313Z,15.93
2018-09-06T11:12:36.601Z,15.47
2018-09-06T11:17:38.806Z,15.03
2018-09-06T11:22:41.212Z,13.23
2018-09-06T11:27:43.176Z,14.67
2018-09-06T11:32:45.291Z,14.90
2018-09-06T11:37:47.493Z,15.27
2018-09-06T11:42:49.661Z,15.87
2018-09-06T11:47:52.234Z,15.27
2018-09-06T11:52:54.410Z,14.57
2018-09-06T11:57:56.701Z,15.63
2018-09-06T12:02:59.476Z,15.00
2018-09-06T12:08:02.005Z,17.23
2018-09-06T12:13:04.344Z,17.47
2018-09-06T12:18:06.594Z,17.10
2018-09-06T12:23:08.979Z,16.33
2018-09-06T12:28:11.470Z,16.70
2018-09-06T12:33:13.935Z,16.77
2018-09-06T12:38:16.422Z,18.27
2018-09-06T12:43:19.563Z,17.73
2018-09-06T12:48:21.737Z,17.07
2018-09-06T12:53:24.218Z,19.90
2018-09-06T12:58:27.101Z,20.03
2018-09-06T13:03:29.928Z,20.80
2018-09-06T13:08:33.550Z,19.30
2018-09-06T13:13:36.670Z,18.00
2018-09-06T13:18:39.196Z,20.10
2018-09-06T13:23:41.294Z,18.80
2018-09-06T13:28:44.300Z,18.50
2018-09-06T13:33:46.817Z,18.37
2018-09-06T13:38:49.010Z,17.50
2018-09-06T13:43:51.420Z,17.43
2018-09-06T13:48:53.836Z,16.27
2018-09-06T13:53:56.181Z,17.83
2018-09-06T13:58:58.860Z,16.83
2018-09-06T14:04:01.367Z,17.03
2018-09-06T14:09:04.477Z,17.97
2018-09-06T14:14:06.914Z,16.63
2018-09-06T14:19:09.257Z,13.20
2018-09-06T14:24:11.661Z,11.90
2018-09-06T14:29:14.070Z,10.90
2018-09-06T14:34:16.546Z,10.67
2018-09-06T14:39:18.818Z,11.77
2018-09-06T14:44:21.232Z,11.50
2018-09-06T14:49:23.734Z,12.60
2018-09-06T14:54:25.928Z,11.97
2018-09-06T14:59:28.346Z,14.10
2018-09-06T15:04:31.281Z,14.53
2018-09-06T15:09:33.935Z,14.77
2018-09-06T15:14:36.563Z,12.30
2018-09-06T15:19:38.758Z,13.03
2018-09-06T15:24:40.921Z,12.13
2018-09-06T15:29:43.289Z,11.70
2018-09-06T15:34:45.489Z,13.33
2018-09-06T15:39:47.898Z,11.73
2018-09-06T15:44:50.113Z,9.37
2018-09-06T15:49:53.912Z,8.63
2018-09-06T15:54:56.568Z,8.37
2018-09-06T15:59:59.181Z,9.23
2018-09-06T16:05:01.394Z,9.73
2018-09-06T16:10:03.602Z,10.00
2018-09-06T16:15:06.875Z,10.30
2018-09-06T16:20:09.125Z,10.10
2018-09-06T16:25:13.107Z,11.20
2018-09-06T16:30:17.777Z,11.33
2018-09-06T16:35:22.105Z,11.50
2018-09-06T16:40:24.438Z,11.73
2018-09-06T16:45:26.584Z,11.37
2018-09-06T16:50:28.790Z,11.70
2018-09-06T16:55:31.939Z,11.47
2018-09-06T17:00:35.359Z,11.17
2018-09-06T17:05:38.061Z,11.57
2018-09-06T17:10:40.269Z,11.37
2018-09-06T17:15:42.436Z,11.63
2018-09-06T17:20:45.236Z,12.40
2018-09-06T17:25:47.385Z,13.33
2018-09-06T17:30:51.490Z,12.70
2018-09-06T17:35:53.690Z,11.23
2018-09-06T17:40:56.501Z,12.33
2018-09-06T17:45:58.773Z,13.10
2018-09-06T17:51:01.949Z,13.60
2018-09-06T17:56:04.926Z,12.50
2018-09-06T18:01:24.456Z,13.27
2018-09-06T18:06:27.562Z,12.27
2018-09-06T18:11:30.815Z,11.60
2018-09-06T18:16:33.245Z,13.13
2018-09-06T18:21:35.417Z,13.23
2018-09-06T18:26:37.998Z,12.20
2018-09-06T18:31:40.188Z,14.53
2018-09-06T18:36:42.321Z,14.57
2018-09-06T18:41:45.462Z,13.97
2018-09-06T18:46:48.938Z,16.70
2018-09-06T18:51:51.118Z,17.40
2018-09-06T18:56:53.358Z,17.07
2018-09-06T19:01:55.617Z,17.80
2018-09-06T19:06:57.754Z,18.00
2018-09-06T19:11:59.944Z,21.07
2018-09-06T19:17:02.412Z,21.43
2018-09-06T19:22:04.864Z,21.30
2018-09-06T19:27:07.280Z,20.50
2018-09-06T19:32:09.690Z,21.57
2018-09-06T19:37:11.901Z,21.97
2018-09-06T19:42:14.062Z,24.40
2018-09-06T19:47:16.218Z,24.63
2018-09-06T19:52:18.378Z,24.07
2018-09-06T19:57:20.577Z,25.53
2018-09-06T20:02:23.198Z,26.87
2018-09-06T20:07:25.925Z,28.40
2018-09-06T20:12:36.273Z,26.63
2018-09-06T20:17:38.487Z,28.90
2018-09-06T20:22:41.649Z,30.70
2018-09-06T20:27:44.265Z,32.20
2018-09-06T20:32:46.943Z,30.93
2018-09-06T20:37:50.198Z,34.17
2018-09-06T20:42:52.608Z,37.13
2018-09-06T20:47:54.814Z,39.07
2018-09-06T20:52:56.944Z,38.70
2018-09-06T20:57:59.093Z,40.40
2018-09-06T21:03:01.336Z,42.47
2018-09-06T21:08:04.278Z,43.10
2018-09-06T21:13:06.437Z,42.00
2018-09-06T21:18:09.646Z,43.07
2018-09-06T21:23:11.882Z,45.87
2018-09-06T21:28:14.300Z,44.20
2018-09-06T21:33:16.594Z,42.00
2018-09-06T21:38:18.774Z,43.60
2018-09-06T21:43:21.625Z,41.10
2018-09-06T21:48:24.367Z,42.97
2018-09-06T21:53:26.658Z,43.60
2018-09-06T21:58:28.950Z,44.67
2018-09-06T22:03:36.822Z,43.53
2018-09-06T22:08:39.513Z,43.00
2018-09-06T22:13:42.042Z,41.80
2018-09-06T22:18:44.730Z,40.87
2018-09-06T22:23:48.321Z,42.40
2018-09-06T22:28:50.530Z,42.03
2018-09-06T22:33:52.716Z,44.37
2018-09-06T22:38:54.961Z,44.60
2018-09-06T22:43:57.633Z,43.17
2018-09-06T22:48:59.925Z,42.10
2018-09-06T22:54:02.449Z,40.70
2018-09-06T22:59:04.770Z,41.47
2018-09-06T23:04:06.943Z,43.07
2018-09-06T23:09:09.369Z,42.60
2018-09-06T23:14:11.576Z,44.07
2018-09-06T23:19:14.056Z,40.60
2018-09-06T23:24:16.214Z,42.20
2018-09-06T23:29:18.569Z,45.10
2018-09-06T23:34:21.796Z,42.23
2018-09-06T23:39:23.945Z,49.07
2018-09-06T23:44:26.130Z,42.90
2018-09-06T23:49:28.342Z,44.53
2018-09-06T23:54:30.565Z,43.17
2018-09-06T23:59:32.801Z,43.80
